»·PEaware :: N5950W KAVX-KSNA

N5950W :: KAVX-KSNA

FLIGHT INFORMATION

Flight Status: Arrived
Operator: Privately registered:
United States
More flights under this callsign
Pilot: Daniel R. (17770)
Aircraft: PIPER PA-28R-201 ARROW
(P28R)
More flights by this aircraft type
Origin: KAVX Catalina
United States
Destination: KSNA John Wayne-Orange Co
United States
More flights between these airports :: More routes between these airports
Route: SXC V21 SLI
File this flight plan on PilotEdge
Remarks:
Altitude:
(Current/Filed)
5,000ft
Speed:
(Current/Filed)
115kts
Departed: 01-Feb-20 06:27 PM
Arrived: 01-Feb-20 07:08 PM
Distance/Time
Traveled:
32nm/0:41
Distance/Time
To Go:
Arrived

Flight Plot

Page will automatically refresh every two minutes.


Map Options




Map Legend


Flown Route
Filed Route
Departure Airport
Arrival Airport
Navaid (VOR, NDB)
Fix

Horizontal Profiles

Position Reports

Time Latitude Longitude Heading Altitude Ground
Speed
01-Feb-20 17:59 33.403838 -118.415333 141 1545ft 0kts
01-Feb-20 18:00 33.403838 -118.415333 141 1545ft 0kts
01-Feb-20 18:01 33.403838 -118.415333 141 1545ft 0kts
01-Feb-20 18:02 33.403838 -118.415333 141 1545ft 0kts
01-Feb-20 18:03 33.403838 -118.415333 141 1545ft 0kts
01-Feb-20 18:04 33.403838 -118.415333 141 1545ft 0kts
01-Feb-20 18:05 33.403838 -118.415333 141 1545ft 0kts
01-Feb-20 18:06 33.403838 -118.415333 141 1545ft 0kts
01-Feb-20 18:07 33.403838 -118.415333 141 1545ft 0kts
01-Feb-20 18:08 33.403838 -118.415333 141 1545ft 0kts
01-Feb-20 18:09 33.403838 -118.415333 141 1545ft 0kts
01-Feb-20 18:10 33.403838 -118.415333 141 1545ft 0kts
01-Feb-20 18:11 33.403838 -118.415333 141 1545ft 0kts
01-Feb-20 18:12 33.403838 -118.415333 141 1545ft 0kts
01-Feb-20 18:13 33.404003 -118.415054 15 1543ft 7kts
01-Feb-20 18:14 33.406865 -118.411941 56 1503ft 20kts
01-Feb-20 18:15 33.407152 -118.411425 41 1498ft 0kts
01-Feb-20 18:16 33.407152 -118.411425 41 1498ft 0kts
01-Feb-20 18:17 33.407152 -118.411425 41 1498ft 0kts
01-Feb-20 18:18 33.407152 -118.411425 41 1498ft 0kts
01-Feb-20 18:19 33.407152 -118.411425 41 1498ft 0kts
01-Feb-20 18:20 33.407152 -118.411425 41 1498ft 0kts
01-Feb-20 18:21 33.407152 -118.411425 41 1498ft 0kts
01-Feb-20 18:22 33.407152 -118.411425 41 1498ft 0kts
01-Feb-20 18:24 33.407152 -118.411425 41 1498ft 0kts
01-Feb-20 18:25 33.407152 -118.411425 41 1498ft 0kts
01-Feb-20 18:26 33.407254 -118.411352 14 1497ft 6kts
01-Feb-20 18:27 33.403687 -118.417926 235 1564ft 81kts
01-Feb-20 18:28 33.390092 -118.439950 233 2358ft 84kts
01-Feb-20 18:29 33.370297 -118.443029 107 2978ft 97kts
01-Feb-20 18:30 33.380358 -118.415637 35 3590ft 100kts
01-Feb-20 18:31 33.403365 -118.394795 34 4197ft 105kts
01-Feb-20 18:32 33.427934 -118.372809 34 4660ft 113kts
01-Feb-20 18:33 33.453828 -118.349731 34 5000ft 122kts
01-Feb-20 18:34 33.482713 -118.323950 34 4985ft 130kts
01-Feb-20 18:35 33.511325 -118.298414 33 4972ft 127kts
01-Feb-20 18:36 33.539781 -118.273009 32 4960ft 128kts
01-Feb-20 18:37 33.568401 -118.247435 32 4949ft 129kts
01-Feb-20 18:38 33.597452 -118.221453 32 4941ft 130kts
01-Feb-20 18:39 33.626624 -118.195342 32 4939ft 131kts
01-Feb-20 18:40 33.656312 -118.168683 32 4855ft 137kts
01-Feb-20 18:41 33.687982 -118.140274 33 4551ft 143kts
01-Feb-20 18:42 33.720277 -118.111297 33 4247ft 145kts
01-Feb-20 18:42 33.747594 -118.086831 39 4032ft 145kts
01-Feb-20 18:44 33.783561 -118.053056 52 3996ft 138kts
01-Feb-20 18:45 33.800727 -118.011372 61 3997ft 137kts
01-Feb-20 18:45 33.814551 -117.977002 61 3997ft 135kts
01-Feb-20 18:46 33.830912 -117.936314 61 3996ft 134kts
01-Feb-20 18:48 33.849903 -117.889023 61 3994ft 133kts
01-Feb-20 18:48 33.863380 -117.855423 61 3994ft 132kts
01-Feb-20 18:49 33.879326 -117.815627 62 3994ft 131kts
01-Feb-20 18:50 33.895236 -117.775864 62 3996ft 130kts
01-Feb-20 18:51 33.911058 -117.736251 62 3998ft 130kts
01-Feb-20 18:52 33.932541 -117.703083 27 4002ft 128kts
01-Feb-20 18:53 33.964696 -117.682466 27 3887ft 133kts
01-Feb-20 18:54 33.991741 -117.693266 261 3569ft 144kts
01-Feb-20 18:55 33.958189 -117.709445 185 3505ft 125kts
01-Feb-20 18:56 33.928694 -117.714418 196 3557ft 111kts
01-Feb-20 18:57 33.900425 -117.727607 205 3505ft 107kts
01-Feb-20 18:58 33.873373 -117.743575 209 3410ft 111kts
01-Feb-20 18:59 33.847363 -117.759873 210 3395ft 102kts
01-Feb-20 19:00 33.821734 -117.776154 210 3157ft 105kts
01-Feb-20 19:01 33.794558 -117.793465 209 2633ft 119kts
01-Feb-20 19:02 33.768845 -117.809808 206 2025ft 89kts
01-Feb-20 19:03 33.747999 -117.823002 206 1559ft 81kts
01-Feb-20 19:04 33.727845 -117.835791 206 1113ft 81kts
01-Feb-20 19:05 33.707623 -117.848616 206 668ft 81kts
01-Feb-20 19:06 33.688309 -117.860791 207 271ft 76kts
01-Feb-20 19:07 33.678094 -117.868357 297 58ft 0kts
01-Feb-20 19:08 33.676906 -117.869569 208 58ft 18kts
01-Feb-20 19:09 33.676000 -117.871056 33 58ft 0kts
01-Feb-20 19:10 33.676000 -117.871056 33 58ft 0kts

Navigation Log

Ident Type
Flight plan parsing failed, navigation log unavailable